Flight Track Log - Related Links

Times and Time Zones

All times are in EDT time to prevent confusion due to time zone crossing. See the SWA2432 flight status page for this flight to view local times or setup timezone preferences in your user account.

Time Position Orientation Groundspeed Altitude Reporting Facility
EDT Latitude Longitude Course Direction KTS MPH feet Rate Location/Type
Thu 06:37:16 PM 37.7333 -122.2500 267° West 167 192 1,500  Level Northern Cal TRACON
Thu 06:37:35 PM 37.7328 -122.2625 267° West 170 196 1,600 2,593 Climbing Oakland Center
Thu 06:38:37 PM 37.7389 -122.3378 276° West 225 259 5,000 3,317 Climbing Oakland Center
Thu 06:39:38 PM 37.6658 -122.3631 195° South 260 299 8,400 3,295 Climbing Oakland Center
Thu 06:40:39 PM 37.5881 -122.3903 196° South 287 330 11,700 3,073 Climbing Oakland Center
Thu 06:41:41 PM 37.5131 -122.3422 153° Southeast 320 368 14,700 2,585 Climbing Oakland Center
Thu 06:42:42 PM 37.4472 -122.2539 133° Southeast 345 397 17,000 2,311 Climbing Oakland Center
Thu 06:43:43 PM 37.3750 -122.1603 134° Southeast 370 426 19,400 2,341 Climbing Oakland Center
Thu 06:44:45 PM 37.3000 -122.0628 134° Southeast 385 443 21,800 2,244 Climbing Oakland Center
Thu 06:45:46 PM 37.2231 -121.9622 134° Southeast 398 458 24,000 1,918 Climbing Oakland Center
Thu 06:46:47 PM 37.1431 -121.8567 134° Southeast 414 476 25,700 2,016 Climbing Oakland Center
Thu 06:47:48 PM 37.0389 -121.7308 136° Southeast 432 497 28,100 1,951 Climbing Oakland Center
Thu 06:48:50 PM 36.9536 -121.6192 134° Southeast 441 507 29,700 1,561 Climbing Oakland Center
Thu 06:49:51 PM 36.8658 -121.5061 134° Southeast 453 521 31,300 1,721 Climbing Oakland Center
Thu 06:50:52 PM 36.7808 -121.3989 135° Southeast 452 520 33,200 1,805 Climbing Oakland Center
Thu 06:51:54 PM 36.6947 -121.2875 134° Southeast 444 511 35,000 878 Climbing Oakland Center
Thu 06:52:55 PM 36.6061 -121.1761 135° Southeast 451 519 35,000  Level Oakland Center
Thu 06:53:56 PM 36.5156 -121.0611 134° Southeast 461 531 35,000  Level Oakland Center
Thu 06:54:58 PM 36.4258 -120.9478 135° Southeast 460 529 35,000  Level Oakland Center
Thu 06:55:59 PM 36.3181 -120.8133 135° Southeast 457 526 35,000  Level Oakland Center
Thu 06:57:00 PM 36.2281 -120.6986 134° Southeast 460 529 35,000  Level Oakland Center
Thu 06:58:01 PM 36.1381 -120.5861 135° Southeast 459 528 35,000  Level Oakland Center
Thu 06:59:03 PM 36.0461 -120.4689 134° Southeast 481 554 35,000  Level Oakland Center
Thu 07:00:04 PM 35.9561 -120.3589 135° Southeast 456 525 35,000  Level Oakland Center
Thu 07:01:05 PM 35.8639 -120.2461 135° Southeast 461 531 35,000  Level Oakland Center
Thu 07:02:06 PM 35.7731 -120.1336 135° Southeast 460 529 35,000  Level Oakland Center
Thu 07:03:07 PM 35.6814 -120.0203 135° Southeast 462 532 35,000  Level Oakland Center
Thu 07:04:09 PM 35.5789 -119.9189 141° Southeast 466 536 35,000  Level Oakland Center
Thu 07:05:10 PM 35.4731 -119.8283 145° Southeast 461 531 35,000  Level Oakland Center
Thu 07:06:11 PM 35.3681 -119.7381 145° Southeast 459 528 35,000  Level Oakland Center
Thu 07:06:43 PM 35.3058 -119.6842 145° Southeast 460 529 35,000  Level Los Angeles Center
Thu 07:07:55 PM 35.2011 -119.5942 145° Southeast 458 527 35,000  Level Los Angeles Center
Thu 07:08:58 PM 35.0756 -119.4875 145° Southeast 459 528 35,000 -1,152 Level Los Angeles Center
Thu 07:10:00 PM 34.9722 -119.3983 145° Southeast 456 525 32,600 -2,565 Descending Los Angeles Center
Thu 07:11:02 PM 34.8689 -119.3097 145° Southeast 454 522 29,700 -2,855 Descending Los Angeles Center
Thu 07:12:04 PM 34.7472 -119.2083 146° Southeast 442 509 26,700 -2,661 Descending Los Angeles Center
Thu 07:13:06 PM 34.6522 -119.1264 145° Southeast 423 487 24,200 -2,448 Descending Los Angeles Center
Thu 07:14:09 PM 34.5500 -119.0433 146° Southeast 411 473 21,600 -2,352 Descending Los Angeles Center
Thu 07:15:11 PM 34.4608 -118.9689 145° Southeast 391 450 19,300 -2,177 Descending Los Angeles Center
Thu 07:16:13 PM 34.3736 -118.8967 146° Southeast 377 434 17,100 -2,274 Descending Los Angeles Center
Thu 07:17:15 PM 34.2794 -118.8528 159° South 367 422 14,600 -2,323 Descending Los Angeles Center
Thu 07:18:17 PM 34.1850 -118.8189 163° South 356 410 12,300 -1,984 Descending Los Angeles Center
Thu 07:19:19 PM 34.0767 -118.7772 162° South 344 396 10,500 -1,113 Descending Los Angeles Center
Thu 07:20:21 PM 34.0333 -118.7031 125° Southeast 294 338 10,000 -677 Descending Los Angeles Center
Thu 07:21:23 PM 34.0247 -118.6094 96° East 283 326 9,100 -1,258 Descending Los Angeles Center
Thu 07:22:25 PM 34.0147 -118.5075 97° East 284 327 7,400 -1,368 Descending Los Angeles Center
Thu 07:23:39 PM 34.0119 -118.4269 92° East 262 302 6,000 -1,445 Descending Los Angeles Center
Thu 07:24:42 PM 34.0250 -118.3167 82° East 270 311 4,100 -1,104 Descending Los Angeles Center
Thu 07:25:44 PM 34.0011 -118.2511 114° Southeast 237 273 3,700 -968 Descending Los Angeles Center
Thu 07:26:46 PM 33.9625 -118.2967 224° Southwest 204 235 2,100 -1,306 Descending Los Angeles Center
Thu 07:27:48 PM 33.9583 -118.3458 264° West 170 196 1,000 -823 Descending Los Angeles Center
Thu 07:28:50 PM 33.9544 -118.3886 264° West 147 169 400 -435 Descending Los Angeles Center
Thu 07:29:52 PM 33.9503 -118.4267 262° West 140 161 100 -290 Descending Los Angeles Center
Thu 07:31:00 PM 33.9425 -118.4081 90° East  Level Estimated

Login

Don't have an account? Register now (free) for customized features, flight alerts, and more!